Time;durP1;ratioP1;P1;durP2;ratioP2;P2;SDS_P1;SDS_P2;PMS_P1;PMS_P2;Temp;Humidity;BMP_temperature;BMP_pressure;BME280_temperature;BME280_humidity;BME280_pressure;Samples;Min_cycle;Max_cycle;Signal;HPM_P1;HPM_P2
2021/06/24 00:01:12;;;;;;;7.13;3.70;;;17.90;99.90;;;;;;4141203;28;20052;-82
2021/06/24 00:03:12;;;;;;;4.82;3.65;;;17.90;99.90;;;;;;4140900;28;20109;-82
2021/06/24 00:05:13;;;;;;;8.48;4.20;;;17.90;99.90;;;;;;4139475;28;20025;-82
2021/06/24 00:07:14;;;;;;;11.30;4.40;;;17.90;99.90;;;;;;4140649;28;20508;-82
2021/06/24 00:09:15;;;;;;;5.25;4.03;;;17.90;99.90;;;;;;4140618;28;20530;-82
2021/06/24 00:11:15;;;;;;;7.40;4.35;;;17.80;99.90;;;;;;4123316;28;20443;-82
2021/06/24 00:13:16;;;;;;;7.60;3.55;;;17.80;99.90;;;;;;4137801;28;20108;-82
2021/06/24 00:15:17;;;;;;;6.28;4.13;;;17.80;99.90;;;;;;4122845;28;20045;-82
2021/06/24 00:17:18;;;;;;;6.80;3.17;;;17.80;99.90;;;;;;4124845;28;20036;-82
2021/06/24 00:19:18;;;;;;;5.55;3.65;;;17.80;99.90;;;;;;4141965;28;20053;-82
2021/06/24 00:21:21;;;;;;;11.75;4.18;;;17.80;99.90;;;;;;4138285;28;20064;-82
2021/06/24 00:23:21;;;;;;;7.15;4.03;;;17.80;99.90;;;;;;4119491;28;20037;-82
2021/06/24 00:25:22;;;;;;;8.13;3.65;;;17.80;99.90;;;;;;4122578;28;20042;-82
2021/06/24 00:27:23;;;;;;;6.22;4.20;;;17.80;99.90;;;;;;4122720;28;20581;-82
2021/06/24 00:29:23;;;;;;;4.68;3.70;;;17.80;99.90;;;;;;4139976;28;20248;-82
2021/06/24 00:31:24;;;;;;;7.68;3.92;;;17.70;99.90;;;;;;4138574;28;20394;-82
2021/06/24 00:33:25;;;;;;;9.48;3.92;;;17.70;99.90;;;;;;4140077;28;20502;-82
2021/06/24 00:35:26;;;;;;;10.48;4.70;;;17.70;99.90;;;;;;4141076;28;20033;-82
2021/06/24 00:37:31;;;;;;;8.85;4.43;;;17.70;99.90;;;;;;4123015;28;20535;-82
2021/06/24 00:39:31;;;;;;;7.07;3.88;;;17.70;99.90;;;;;;4138862;28;20030;-82
2021/06/24 00:41:32;;;;;;;8.93;3.85;;;17.60;99.90;;;;;;4136862;28;20684;-82
2021/06/24 00:43:33;;;;;;;7.22;3.53;;;17.60;99.90;;;;;;4124346;28;20454;-82
2021/06/24 00:45:34;;;;;;;5.55;3.35;;;17.60;99.90;;;;;;4124143;28;20065;-82
2021/06/24 00:47:36;;;;;;;7.00;3.78;;;17.60;99.90;;;;;;4122823;28;20410;-82
2021/06/24 00:49:37;;;;;;;6.15;3.47;;;17.60;99.90;;;;;;4123930;28;20070;-82
2021/06/24 00:51:37;;;;;;;9.35;4.22;;;17.60;99.90;;;;;;4140466;28;20033;-82
2021/06/24 00:53:38;;;;;;;9.25;4.10;;;17.60;99.90;;;;;;4140796;28;20030;-82
2021/06/24 00:55:43;;;;;;;8.45;3.30;;;17.50;99.90;;;;;;4122737;28;20114;-82
2021/06/24 00:57:45;;;;;;;9.40;3.65;;;17.50;99.90;;;;;;4121728;28;20030;-82
2021/06/24 00:59:45;;;;;;;5.35;3.20;;;17.50;99.90;;;;;;4139906;28;20163;-82
2021/06/24 01:01:46;;;;;;;4.32;2.92;;;17.60;99.90;;;;;;4136990;28;20046;-82
2021/06/24 01:03:47;;;;;;;7.57;3.50;;;17.60;99.90;;;;;;4137549;28;20048;-82
2021/06/24 01:05:48;;;;;;;5.68;3.88;;;17.60;99.90;;;;;;4121259;28;20061;-82
2021/06/24 01:07:49;;;;;;;5.75;3.83;;;17.60;99.90;;;;;;4156460;28;20036;-82
2021/06/24 01:09:49;;;;;;;5.43;3.38;;;17.50;99.90;;;;;;4135170;28;20288;-82
2021/06/24 01:11:50;;;;;;;5.63;3.88;;;17.50;99.90;;;;;;4138721;28;20579;-82
2021/06/24 01:13:52;;;;;;;5.97;3.42;;;17.50;99.90;;;;;;4122143;28;20578;-82
2021/06/24 01:15:53;;;;;;;7.38;3.67;;;17.50;99.90;;;;;;4133363;28;20035;-82
2021/06/24 01:17:55;;;;;;;9.13;3.90;;;17.50;99.90;;;;;;4123567;28;20362;-82
2021/06/24 01:19:56;;;;;;;5.93;3.42;;;17.50;99.90;;;;;;4138834;28;20033;-83
2021/06/24 01:21:58;;;;;;;7.95;3.60;;;17.50;99.90;;;;;;4136624;28;20038;-82
2021/06/24 01:23:59;;;;;;;6.40;3.45;;;17.50;99.90;;;;;;4124515;28;20434;-82
2021/06/24 01:26:00;;;;;;;6.05;3.47;;;17.40;99.90;;;;;;4137692;28;20117;-82
2021/06/24 01:28:06;;;;;;;11.48;3.95;;;17.50;99.90;;;;;;4123954;28;20391;-81
2021/06/24 01:30:07;;;;;;;8.48;3.92;;;17.40;99.90;;;;;;4140649;28;20052;-82
2021/06/24 01:32:08;;;;;;;7.07;3.88;;;17.40;99.90;;;;;;4123728;28;20538;-82
2021/06/24 01:34:11;;;;;;;8.02;3.92;;;17.40;99.90;;;;;;4123669;28;20113;-82
2021/06/24 01:36:13;;;;;;;5.65;3.33;;;17.40;99.90;;;;;;4136985;28;20234;-82
2021/06/24 01:38:14;;;;;;;6.60;3.58;;;17.40;99.90;;;;;;4140801;28;20486;-82
2021/06/24 01:40:16;;;;;;;6.50;3.75;;;17.30;99.90;;;;;;4123217;28;20164;-83
2021/06/24 01:42:16;;;;;;;4.57;3.47;;;17.30;99.90;;;;;;4123679;28;20118;-82
2021/06/24 01:44:35;;;;;;;9.77;3.90;;;17.30;99.90;;;;;;4137943;28;20042;-82
2021/06/24 01:46:36;;;;;;;10.15;4.03;;;17.30;99.90;;;;;;4141007;28;20042;-82
2021/06/24 01:48:39;;;;;;;8.23;4.18;;;17.20;99.90;;;;;;4127197;28;20105;-82
2021/06/24 01:50:42;;;;;;;6.03;3.55;;;17.30;99.90;;;;;;4126890;28;20113;-82
2021/06/24 01:52:43;;;;;;;;;;;17.20;99.90;;;;;;4143347;28;20195;-82
2021/06/24 01:54:47;;;;;;;8.35;3.70;;;17.20;99.90;;;;;;4143554;28;19913;-82
2021/06/24 01:56:49;;;;;;;6.85;4.07;;;17.20;99.90;;;;;;4136841;28;20121;-82
2021/06/24 01:58:49;;;;;;;8.27;3.60;;;17.20;99.90;;;;;;4125216;28;20105;-82
2021/06/24 02:00:52;;;;;;;6.82;3.80;;;17.20;99.90;;;;;;4143191;28;20034;-82
2021/06/24 02:02:52;;;;;;;;;;;17.20;99.90;;;;;;4143265;28;20138;-82
2021/06/24 02:04:53;;;;;;;5.57;3.60;;;17.20;99.90;;;;;;4125700;28;19971;-82
2021/06/24 02:06:54;;;;;;;7.63;4.07;;;17.20;99.90;;;;;;4143511;28;21401;-82
2021/06/24 02:08:54;;;;;;;7.70;3.67;;;17.10;99.90;;;;;;4141588;28;20038;-82
2021/06/24 02:10:57;;;;;;;6.95;4.00;;;17.10;99.90;;;;;;4141760;28;20560;-82
2021/06/24 02:12:57;;;;;;;6.97;3.80;;;17.10;99.90;;;;;;4124672;28;20058;-82
2021/06/24 02:14:58;;;;;;;8.70;3.63;;;17.10;99.90;;;;;;4141826;28;20513;-82
2021/06/24 02:16:59;;;;;;;9.00;4.00;;;17.10;99.90;;;;;;4130763;28;20037;-82
2021/06/24 02:18:59;;;;;;;5.40;3.63;;;17.10;99.90;;;;;;4141480;28;20030;-82
2021/06/24 02:21:00;;;;;;;6.22;3.72;;;17.10;99.90;;;;;;4140586;28;20530;-82
2021/06/24 02:23:00;;;;;;;7.47;4.10;;;17.10;99.90;;;;;;4144114;28;20443;-82
2021/06/24 02:25:03;;;;;;;7.53;4.07;;;17.10;99.90;;;;;;4137827;28;20126;-82
2021/06/24 02:27:03;;;;;;;6.90;4.32;;;17.10;99.90;;;;;;4139130;28;20113;-82
2021/06/24 02:29:04;;;;;;;7.13;3.50;;;17.00;99.90;;;;;;4125701;28;20523;-82
2021/06/24 02:31:06;;;;;;;7.22;3.80;;;17.00;99.90;;;;;;4123754;28;20678;-82
2021/06/24 02:33:09;;;;;;;8.15;4.05;;;17.00;99.90;;;;;;4142907;28;20030;-82
2021/06/24 02:35:13;;;;;;;5.82;3.72;;;17.00;99.90;;;;;;4141977;28;20117;-82
2021/06/24 02:37:14;;;;;;;12.05;4.95;;;17.00;99.90;;;;;;4122513;28;20118;-82
2021/06/24 02:39:15;;;;;;;10.15;4.47;;;17.00;99.90;;;;;;4139495;28;20049;-82
2021/06/24 02:41:15;;;;;;;10.27;4.10;;;17.00;99.90;;;;;;4144768;28;20034;-82
2021/06/24 02:43:16;;;;;;;13.88;4.82;;;17.00;99.90;;;;;;4141107;28;20034;-82
2021/06/24 02:45:17;;;;;;;9.68;4.97;;;16.90;99.90;;;;;;4123866;28;20039;-82
2021/06/24 02:47:17;;;;;;;8.88;4.53;;;16.90;99.90;;;;;;4125631;28;20031;-82
2021/06/24 02:49:18;;;;;;;12.10;4.60;;;16.90;99.90;;;;;;4142170;28;20542;-82
2021/06/24 02:51:19;;;;;;;8.98;4.45;;;16.90;99.90;;;;;;4138674;28;20172;-82
2021/06/24 02:53:19;;;;;;;7.28;3.88;;;16.80;99.90;;;;;;4137798;28;20041;-81
2021/06/24 02:55:20;;;;;;;14.23;5.10;;;16.80;99.90;;;;;;4140444;28;20034;-82
2021/06/24 02:57:20;;;;;;;11.00;4.65;;;16.80;99.90;;;;;;4139697;28;20042;-82
2021/06/24 02:59:21;;;;;;;9.32;4.32;;;16.90;99.90;;;;;;4126297;28;20042;-82
2021/06/24 03:01:21;;;;;;;9.57;4.40;;;16.90;99.90;;;;;;4137488;28;20039;-82
2021/06/24 03:03:22;;;;;;;10.18;4.65;;;16.80;99.90;;;;;;4126021;28;20039;-82
2021/06/24 03:05:23;;;;;;;10.63;4.95;;;16.80;99.90;;;;;;4126477;28;20041;-82
2021/06/24 03:07:23;;;;;;;7.07;4.03;;;16.80;99.90;;;;;;4126640;28;20042;-82
2021/06/24 03:09:24;;;;;;;7.18;4.63;;;16.80;99.90;;;;;;4141335;28;20434;-82
2021/06/24 03:11:25;;;;;;;8.35;4.78;;;16.80;99.90;;;;;;4141536;28;20046;-82
2021/06/24 03:13:25;;;;;;;12.68;4.65;;;16.80;99.90;;;;;;4143913;28;20045;-82
2021/06/24 03:15:27;;;;;;;6.82;4.32;;;16.80;99.90;;;;;;4141246;28;20054;-82
2021/06/24 03:17:28;;;;;;;8.68;4.38;;;16.80;99.90;;;;;;4141344;28;20045;-82
2021/06/24 03:19:29;;;;;;;7.78;4.22;;;16.80;99.90;;;;;;4139883;28;20046;-81
2021/06/24 03:21:29;;;;;;;8.77;4.25;;;16.80;99.90;;;;;;4141373;28;20192;-81
2021/06/24 03:23:30;;;;;;;8.95;4.78;;;16.80;99.90;;;;;;4127063;28;20474;-82
2021/06/24 03:25:32;;;;;;;8.07;4.65;;;16.80;99.90;;;;;;4139282;28;20125;-82
2021/06/24 03:27:33;;;;;;;7.75;4.50;;;16.80;99.90;;;;;;4125271;28;20133;-81
2021/06/24 03:29:33;;;;;;;12.18;4.93;;;16.80;99.90;;;;;;4142699;28;20407;-82
2021/06/24 03:31:34;;;;;;;9.00;4.55;;;16.70;99.90;;;;;;4140979;28;20036;-82
2021/06/24 03:33:35;;;;;;;11.50;5.22;;;16.70;99.90;;;;;;4124708;28;20038;-81
2021/06/24 03:35:35;;;;;;;9.45;5.03;;;16.70;99.90;;;;;;4141219;28;20149;-81
2021/06/24 03:37:36;;;;;;;9.48;4.88;;;16.70;99.90;;;;;;4141753;28;20038;-82
2021/06/24 03:39:38;;;;;;;6.30;4.22;;;16.70;99.90;;;;;;4122641;28;20037;-82
2021/06/24 03:41:39;;;;;;;10.30;4.78;;;16.70;99.90;;;;;;4124645;28;20046;-82
2021/06/24 03:43:40;;;;;;;6.22;4.15;;;16.70;99.90;;;;;;4140659;28;20103;-81
2021/06/24 03:45:41;;;;;;;8.27;4.50;;;16.70;99.90;;;;;;4141487;28;20038;-81
2021/06/24 03:47:41;;;;;;;8.57;4.30;;;16.70;99.90;;;;;;4138917;28;20038;-81
2021/06/24 03:49:42;;;;;;;10.18;4.63;;;16.70;99.90;;;;;;4138742;28;20125;-81
2021/06/24 03:51:43;;;;;;;8.00;4.60;;;16.70;99.90;;;;;;4140970;28;20037;-81
2021/06/24 03:53:43;;;;;;;7.40;4.45;;;16.70;99.90;;;;;;4136851;28;20343;-81
2021/06/24 03:55:44;;;;;;;7.32;4.47;;;16.70;99.90;;;;;;4138379;28;20038;-81
2021/06/24 03:57:45;;;;;;;11.48;4.78;;;16.80;99.90;;;;;;4139422;28;20113;-81
2021/06/24 03:59:45;;;;;;;9.25;4.70;;;16.70;99.90;;;;;;4136545;28;20141;-82
2021/06/24 04:01:46;;;;;;;9.23;4.03;;;16.80;99.90;;;;;;4122524;28;20104;-82
2021/06/24 04:03:46;;;;;;;6.47;4.10;;;16.80;99.90;;;;;;4135551;28;20085;-82
2021/06/24 04:05:48;;;;;;;7.15;3.80;;;16.80;99.90;;;;;;4116199;28;20081;-81
2021/06/24 04:07:49;;;;;;;6.00;3.35;;;16.80;99.90;;;;;;4124502;28;20113;-82
2021/06/24 04:09:49;;;;;;;8.60;4.15;;;16.80;99.90;;;;;;4142409;28;20048;-82
2021/06/24 04:11:50;;;;;;;9.88;4.53;;;16.80;99.90;;;;;;4138821;28;20522;-82
2021/06/24 04:13:50;;;;;;;8.93;4.35;;;16.80;99.90;;;;;;4139229;28;20138;-82
2021/06/24 04:15:51;;;;;;;6.85;4.30;;;16.80;99.90;;;;;;4125186;28;20030;-81
2021/06/24 04:17:52;;;;;;;10.82;4.70;;;16.90;99.90;;;;;;4117506;28;20109;-81
2021/06/24 04:19:53;;;;;;;7.53;4.57;;;16.80;99.90;;;;;;4136951;28;20045;-81
2021/06/24 04:21:53;;;;;;;7.32;4.30;;;16.90;99.90;;;;;;4137027;28;20060;-81
2021/06/24 04:23:54;;;;;;;11.75;4.82;;;16.90;99.90;;;;;;4115871;28;20656;-81
2021/06/24 04:25:55;;;;;;;8.93;4.35;;;16.90;99.90;;;;;;4141129;28;20112;-81
2021/06/24 04:27:56;;;;;;;9.00;4.85;;;16.90;99.90;;;;;;4134478;28;20056;-81
2021/06/24 04:29:56;;;;;;;10.88;5.32;;;16.90;99.90;;;;;;4121418;28;20034;-81
2021/06/24 04:31:58;;;;;;;10.77;5.57;;;16.80;99.90;;;;;;4136427;28;20406;-81
2021/06/24 04:33:59;;;;;;;10.88;4.20;;;16.80;99.90;;;;;;4140494;28;20541;-82
2021/06/24 04:35:59;;;;;;;11.00;5.00;;;16.80;99.90;;;;;;4138422;28;20045;-82
2021/06/24 04:38:00;;;;;;;6.03;4.45;;;16.80;99.90;;;;;;4136131;28;20113;-82
2021/06/24 04:40:01;;;;;;;7.50;4.60;;;16.70;99.90;;;;;;4141825;28;20057;-82
2021/06/24 04:42:02;;;;;;;7.88;4.00;;;16.80;99.90;;;;;;4119973;28;20221;-82
2021/06/24 04:44:03;;;;;;;9.00;4.35;;;16.70;99.90;;;;;;4140118;28;20548;-81
2021/06/24 04:46:04;;;;;;;10.68;5.18;;;16.80;99.90;;;;;;4124548;28;20038;-81
2021/06/24 04:48:05;;;;;;;8.10;4.45;;;16.80;99.90;;;;;;4140032;28;20030;-81
2021/06/24 04:50:06;;;;;;;9.52;4.70;;;16.80;99.90;;;;;;4121155;28;20049;-81
2021/06/24 04:52:17;;;;;;;9.95;4.82;;;16.80;99.90;;;;;;4143634;28;20618;-82
2021/06/24 04:54:18;;;;;;;10.52;5.18;;;16.80;99.90;;;;;;4137529;28;20037;-77
2021/06/24 04:56:18;;;;;;;8.82;5.32;;;16.90;99.90;;;;;;4129340;28;20191;-77
2021/06/24 04:58:19;;;;;;;17.45;5.22;;;16.90;99.90;;;;;;4146425;28;20089;-77
2021/06/24 05:00:21;;;;;;;8.77;4.25;;;16.90;99.90;;;;;;4121014;28;20038;-77
2021/06/24 05:02:22;;;;;;;10.57;4.93;;;16.90;99.90;;;;;;4144670;28;20042;-77
2021/06/24 05:04:22;;;;;;;9.88;5.18;;;16.90;99.90;;;;;;4126994;28;20034;-77
2021/06/24 05:06:23;;;;;;;11.75;5.75;;;16.90;99.90;;;;;;4142866;28;20499;-77
2021/06/24 05:08:27;;;;;;;10.57;4.82;;;16.90;99.90;;;;;;4144464;28;20049;-77
2021/06/24 05:10:28;;;;;;;10.30;4.85;;;17.00;99.90;;;;;;4144108;28;20042;-77
2021/06/24 05:12:32;;;;;;;11.93;5.03;;;17.00;99.90;;;;;;4138715;28;20026;-77
2021/06/24 05:14:32;;;;;;;16.90;6.40;;;17.00;99.90;;;;;;4143358;28;20481;-77
2021/06/24 05:16:35;;;;;;;8.60;5.18;;;17.00;99.90;;;;;;4141072;28;20037;-77
2021/06/24 05:18:35;;;;;;;9.27;5.22;;;17.00;99.90;;;;;;4143119;28;20049;-77
2021/06/24 05:20:39;;;;;;;8.98;4.55;;;17.10;99.90;;;;;;4144469;28;20555;-77
2021/06/24 05:22:40;;;;;;;7.70;5.13;;;17.10;99.90;;;;;;4130356;28;23029;-77
2021/06/24 05:24:43;;;;;;;9.18;5.47;;;17.20;99.90;;;;;;4124033;28;20057;-77
2021/06/24 05:26:44;;;;;;;11.65;5.32;;;17.20;99.90;;;;;;4124961;28;20027;-77
2021/06/24 05:28:45;;;;;;;10.65;5.68;;;17.20;99.90;;;;;;4145397;28;20887;-76
2021/06/24 05:30:47;;;;;;;8.50;5.25;;;17.30;99.90;;;;;;4143537;28;20046;-76
2021/06/24 05:32:49;;;;;;;10.48;5.65;;;17.30;99.90;;;;;;4140626;28;20132;-76
2021/06/24 05:34:49;;;;;;;11.85;5.43;;;17.30;99.90;;;;;;4140211;28;20045;-76
2021/06/24 05:36:50;;;;;;;10.18;5.78;;;17.30;99.90;;;;;;4112833;28;20029;-77
2021/06/24 05:38:51;;;;;;;11.77;5.72;;;17.30;99.90;;;;;;4137650;28;20133;-76
2021/06/24 05:40:54;;;;;;;11.80;6.07;;;17.30;99.90;;;;;;4145007;28;20041;-76
2021/06/24 05:42:56;;;;;;;15.40;8.68;;;17.30;99.90;;;;;;4139394;28;20513;-76
2021/06/24 05:44:57;;;;;;;14.48;7.57;;;17.30;99.90;;;;;;4144909;28;20441;-76
2021/06/24 05:47:00;;;;;;;12.15;5.65;;;17.40;99.90;;;;;;4138525;28;20045;-77
2021/06/24 05:49:01;;;;;;;9.73;5.68;;;17.40;99.90;;;;;;4145174;28;20560;-76
2021/06/24 05:51:01;;;;;;;11.90;6.22;;;17.40;99.90;;;;;;4144341;28;20033;-76
2021/06/24 05:53:02;;;;;;;11.15;5.93;;;17.40;99.90;;;;;;4143574;28;20042;-76
2021/06/24 05:55:04;;;;;;;14.68;6.55;;;17.40;99.90;;;;;;4127638;28;20033;-76
2021/06/24 05:57:05;;;;;;;8.93;5.47;;;17.50;99.90;;;;;;4140401;28;20830;-77
2021/06/24 05:59:06;;;;;;;10.18;5.95;;;17.50;99.90;;;;;;4144081;28;20033;-76
2021/06/24 06:01:07;;;;;;;11.82;6.50;;;17.50;99.90;;;;;;4146895;28;20061;-76
2021/06/24 06:03:08;;;;;;;9.90;5.88;;;17.50;99.90;;;;;;4145165;28;20374;-76
2021/06/24 06:05:10;;;;;;;13.52;6.68;;;17.60;99.90;;;;;;4143211;28;20044;-76
2021/06/24 06:07:10;;;;;;;12.52;7.38;;;17.60;99.90;;;;;;4138809;28;20471;-76
2021/06/24 06:09:12;;;;;;;13.18;8.27;;;17.60;99.90;;;;;;4141348;28;20132;-77
2021/06/24 06:11:13;;;;;;;13.98;8.43;;;17.60;99.90;;;;;;4144874;28;20037;-76
2021/06/24 06:13:14;;;;;;;12.40;8.23;;;17.60;99.90;;;;;;4139447;28;20132;-76
2021/06/24 06:15:14;;;;;;;14.43;7.60;;;17.70;99.90;;;;;;4141410;28;20037;-76
2021/06/24 06:17:15;;;;;;;13.13;8.85;;;17.60;99.90;;;;;;4142351;28;20154;-79
2021/06/24 06:19:15;;;;;;;18.65;10.32;;;17.60;99.90;;;;;;4145078;28;20056;-77
2021/06/24 06:21:18;;;;;;;13.43;9.05;;;17.70;99.90;;;;;;4142538;28;20049;-76
2021/06/24 06:23:20;;;;;;;;;;;17.70;99.90;;;;;;4139606;28;20042;-76
2021/06/24 06:25:22;;;;;;;14.63;9.77;;;17.60;99.90;;;;;;4142869;28;19917;-76
2021/06/24 06:27:23;;;;;;;15.07;8.18;;;17.60;99.90;;;;;;4137077;28;20227;-77
2021/06/24 06:29:23;;;;;;;15.15;9.82;;;17.60;99.90;;;;;;4121755;28;20439;-76
2021/06/24 06:31:25;;;;;;;15.48;8.75;;;17.60;99.90;;;;;;4125347;28;20042;-76
2021/06/24 06:33:26;;;;;;;12.70;8.82;;;17.70;99.90;;;;;;4143724;28;20518;-76
2021/06/24 06:35:26;;;;;;;15.20;10.15;;;17.70;99.90;;;;;;4143487;28;20049;-76
2021/06/24 06:37:27;;;;;;;15.02;9.93;;;17.70;99.90;;;;;;4147706;28;20052;-76
2021/06/24 06:39:27;;;;;;;15.98;10.25;;;17.70;99.90;;;;;;4147331;28;20040;-77
2021/06/24 06:41:28;;;;;;;18.98;10.55;;;17.80;99.90;;;;;;4145590;28;20100;-78
2021/06/24 06:43:29;;;;;;;16.02;9.80;;;17.80;99.90;;;;;;4145561;28;20042;-77
2021/06/24 06:45:31;;;;;;;14.43;9.48;;;17.80;99.90;;;;;;4140337;28;20951;-77
2021/06/24 06:47:32;;;;;;;11.27;9.55;;;17.90;99.90;;;;;;4140332;28;20030;-77
2021/06/24 06:49:32;;;;;;;17.90;10.45;;;17.90;99.90;;;;;;4124609;28;20049;-77
2021/06/24 06:51:33;;;;;;;17.60;10.80;;;17.90;99.90;;;;;;4143520;28;20064;-77
2021/06/24 06:53:34;;;;;;;12.32;8.40;;;17.80;99.90;;;;;;4146210;28;20034;-77
2021/06/24 06:55:35;;;;;;;17.52;8.90;;;17.80;99.90;;;;;;4144938;28;20034;-77
2021/06/24 06:57:36;;;;;;;14.80;7.65;;;17.80;99.90;;;;;;4140666;28;20034;-77
2021/06/24 06:59:36;;;;;;;13.05;7.43;;;17.80;99.90;;;;;;4145141;28;20537;-77
2021/06/24 07:01:37;;;;;;;16.30;7.20;;;17.80;99.90;;;;;;4143973;28;20513;-77
2021/06/24 07:03:40;;;;;;;11.60;6.75;;;17.80;99.90;;;;;;4142774;28;20048;-77
2021/06/24 07:05:40;;;;;;;;;;;17.90;99.90;;;;;;4125645;28;20593;-77
2021/06/24 07:07:41;;;;;;;11.23;6.30;;;17.90;99.90;;;;;;4143417;28;20016;-77
2021/06/24 07:09:42;;;;;;;15.98;6.82;;;17.90;99.90;;;;;;4123136;28;20803;-77
2021/06/24 07:11:43;;;;;;;10.13;5.63;;;18.00;99.90;;;;;;4144736;28;20050;-77
2021/06/24 07:13:43;;;;;;;9.88;5.63;;;18.10;99.90;;;;;;4144377;28;20034;-77
2021/06/24 07:15:44;;;;;;;10.57;5.90;;;18.10;99.90;;;;;;4143075;28;20042;-77
2021/06/24 07:17:45;;;;;;;11.65;6.13;;;18.30;99.90;;;;;;4147777;28;20701;-77
2021/06/24 07:19:46;;;;;;;10.40;5.95;;;18.30;99.90;;;;;;4143705;28;20053;-78
2021/06/24 07:21:48;;;;;;;9.55;6.70;;;18.40;99.90;;;;;;4140995;28;20871;-77
2021/06/24 07:23:48;;;;;;;9.98;6.53;;;18.50;99.90;;;;;;4145068;28;20038;-77
2021/06/24 07:25:49;;;;;;;9.25;5.32;;;18.50;99.90;;;;;;4143238;28;20049;-77
2021/06/24 07:27:51;;;;;;;10.45;5.30;;;18.60;99.90;;;;;;4143615;28;20065;-77
2021/06/24 07:29:52;;;;;;;8.65;4.75;;;18.60;99.90;;;;;;4144052;28;20029;-77
2021/06/24 07:31:52;;;;;;;13.18;5.68;;;18.60;99.90;;;;;;4142754;28;23189;-77
2021/06/24 07:33:53;;;;;;;8.68;5.00;;;18.60;99.90;;;;;;4126767;28;20065;-77
2021/06/24 07:35:54;;;;;;;8.77;4.75;;;18.60;99.90;;;;;;4141061;28;20116;-77
2021/06/24 07:37:54;;;;;;;8.05;4.50;;;18.70;99.90;;;;;;4142633;28;20049;-77
2021/06/24 07:39:55;;;;;;;7.60;4.43;;;18.70;99.90;;;;;;4143140;28;20113;-77
2021/06/24 07:41:56;;;;;;;8.10;4.60;;;18.70;99.90;;;;;;4146942;28;20041;-77
2021/06/24 07:43:57;;;;;;;8.40;4.57;;;18.80;99.90;;;;;;4142519;28;20030;-77
2021/06/24 07:45:58;;;;;;;9.13;5.18;;;18.80;99.90;;;;;;4141733;28;20038;-77
2021/06/24 07:48:00;;;;;;;11.55;5.13;;;18.90;99.90;;;;;;4123367;28;20049;-77
2021/06/24 07:50:00;;;;;;;12.32;5.53;;;18.90;99.90;;;;;;4143259;28;20065;-77
2021/06/24 07:52:01;;;;;;;11.50;5.20;;;19.00;99.90;;;;;;4143064;28;20113;-77
2021/06/24 07:54:02;;;;;;;11.27;5.75;;;19.10;99.90;;;;;;4146540;28;20107;-77
2021/06/24 07:56:03;;;;;;;11.82;5.50;;;19.10;99.90;;;;;;4140851;28;20034;-77
2021/06/24 07:58:05;;;;;;;13.27;5.43;;;19.20;99.90;;;;;;4144553;28;20042;-77
2021/06/24 08:00:08;;;;;;;12.38;5.20;;;19.20;99.90;;;;;;4144298;28;20038;-77
2021/06/24 08:02:09;;;;;;;13.27;5.50;;;19.20;99.90;;;;;;4126570;28;20093;-77
2021/06/24 08:04:10;;;;;;;9.13;5.25;;;19.30;99.90;;;;;;4143973;28;20686;-77
2021/06/24 08:06:11;;;;;;;9.65;5.00;;;19.40;99.90;;;;;;4145964;28;20033;-77
2021/06/24 08:08:11;;;;;;;10.15;4.82;;;19.40;99.90;;;;;;4145830;28;21281;-77
2021/06/24 08:10:13;;;;;;;11.68;4.90;;;19.40;99.90;;;;;;4145303;28;20506;-77
2021/06/24 08:12:13;;;;;;;9.68;5.05;;;19.50;99.90;;;;;;4128855;28;20054;-77
2021/06/24 08:14:14;;;;;;;18.00;9.38;;;19.60;99.90;;;;;;4142815;28;20111;-77
2021/06/24 08:16:16;;;;;;;15.80;10.43;;;19.50;99.90;;;;;;4141419;28;20657;-77
2021/06/24 08:18:18;;;;;;;9.90;7.47;;;19.50;99.90;;;;;;4145913;28;20042;-77
2021/06/24 08:20:18;;;;;;;10.23;6.13;;;19.50;99.90;;;;;;4143693;28;20034;-77
2021/06/24 08:22:19;;;;;;;9.52;5.68;;;19.50;99.90;;;;;;4142363;28;20097;-77
2021/06/24 08:24:21;;;;;;;9.68;6.15;;;19.60;99.90;;;;;;4145290;28;20107;-77
2021/06/24 08:26:22;;;;;;;10.05;6.63;;;19.60;99.90;;;;;;4144276;28;20514;-77
2021/06/24 08:28:22;;;;;;;12.75;7.10;;;19.60;99.90;;;;;;4142227;28;20037;-77
2021/06/24 08:30:23;;;;;;;10.40;6.68;;;19.60;99.90;;;;;;4146222;28;20145;-77
2021/06/24 08:32:24;;;;;;;9.77;6.53;;;19.60;99.90;;;;;;4138661;28;20076;-77
2021/06/24 08:34:25;;;;;;;10.07;6.95;;;19.60;99.90;;;;;;4142817;28;20053;-77
2021/06/24 08:36:26;;;;;;;9.40;6.22;;;19.60;99.90;;;;;;4144661;28;20018;-77
2021/06/24 08:38:26;;;;;;;8.63;6.50;;;19.70;99.90;;;;;;4144577;28;20044;-77
2021/06/24 08:40:27;;;;;;;11.27;7.00;;;19.60;99.90;;;;;;4149745;28;20036;-77
2021/06/24 08:42:28;;;;;;;10.52;7.22;;;19.50;99.90;;;;;;4143888;28;20041;-77
2021/06/24 08:44:28;;;;;;;13.57;6.95;;;19.50;99.90;;;;;;4141210;28;20068;-77
2021/06/24 08:46:31;;;;;;;9.50;5.82;;;19.40;99.90;;;;;;4147431;28;20042;-77
2021/06/24 08:48:34;;;;;;;12.15;6.35;;;19.40;99.90;;;;;;4142810;28;20042;-77
2021/06/24 08:50:36;;;;;;;9.82;5.47;;;19.50;99.90;;;;;;4146325;28;20064;-77
2021/06/24 08:52:36;;;;;;;10.20;6.32;;;19.40;99.90;;;;;;4144906;28;20390;-77
2021/06/24 08:54:38;;;;;;;10.38;6.38;;;19.50;99.90;;;;;;4143962;28;20044;-77
2021/06/24 08:56:40;;;;;;;9.45;6.07;;;19.60;99.90;;;;;;4141659;28;20045;-77
2021/06/24 08:58:41;;;;;;;9.63;6.53;;;19.60;99.90;;;;;;4143954;28;20115;-77
2021/06/24 09:00:42;;;;;;;8.77;5.85;;;19.60;99.90;;;;;;4145358;28;20041;-77
2021/06/24 09:02:47;;;;;;;9.73;5.03;;;19.60;99.90;;;;;;4141850;28;20125;-77
2021/06/24 09:04:49;;;;;;;9.68;5.60;;;19.60;99.90;;;;;;4145075;28;20041;-77
2021/06/24 09:06:51;;;;;;;10.52;5.30;;;19.60;99.90;;;;;;4128023;28;20050;-77
2021/06/24 09:08:56;;;;;;;10.13;5.85;;;19.70;99.90;;;;;;4145151;28;20045;-76
2021/06/24 09:11:22;;;;;;;8.10;5.28;;;19.70;99.90;;;;;;4142781;28;20125;-77
2021/06/24 09:13:27;;;;;;;9.85;4.68;;;19.80;99.90;;;;;;4139952;28;20113;-77
2021/06/24 09:15:35;;;;;;;8.52;4.30;;;19.80;99.90;;;;;;4141482;28;20053;-77
2021/06/24 09:17:37;;;;;;;7.93;4.50;;;19.90;99.90;;;;;;4141924;28;20037;-77
2021/06/24 09:19:40;;;;;;;8.98;5.38;;;19.90;99.90;;;;;;4143034;28;20403;-77
2021/06/24 09:21:42;;;;;;;8.30;5.20;;;19.90;99.90;;;;;;4143701;28;20049;-77
2021/06/24 09:23:42;;;;;;;10.60;5.63;;;19.90;99.90;;;;;;4145121;28;20021;-77
2021/06/24 09:25:46;;;;;;;12.25;5.47;;;19.90;99.90;;;;;;4141877;28;20124;-77
2021/06/24 09:27:48;;;;;;;15.60;6.93;;;20.00;99.90;;;;;;4144116;28;20022;-77
2021/06/24 09:30:01;;;;;;;9.70;5.20;;;20.00;99.90;;;;;;4144012;28;20049;-77
2021/06/24 09:32:03;;;;;;;7.65;5.28;;;20.10;99.90;;;;;;4144131;28;20652;-77
2021/06/24 09:34:07;;;;;;;8.63;4.88;;;20.10;99.90;;;;;;4142728;28;20042;-77
2021/06/24 09:36:09;;;;;;;8.10;5.25;;;20.10;99.90;;;;;;4144870;28;20692;-77
2021/06/24 09:38:14;;;;;;;7.80;5.35;;;20.10;99.90;;;;;;4142299;28;20062;-77
2021/06/24 09:40:15;;;;;;;10.90;7.22;;;20.10;99.90;;;;;;4143270;28;20053;-77
2021/06/24 09:42:17;;;;;;;8.93;5.30;;;19.90;99.90;;;;;;4141980;28;20056;-77
2021/06/24 09:44:20;;;;;;;8.18;5.30;;;19.90;99.90;;;;;;4144204;28;20046;-77
2021/06/24 09:46:23;;;;;;;10.18;5.25;;;19.90;99.90;;;;;;4143756;28;20164;-77
2021/06/24 09:48:35;;;;;;;5.90;4.55;;;19.90;99.90;;;;;;4125426;28;20042;-77
2021/06/24 09:50:37;;;;;;;9.82;5.05;;;20.00;99.90;;;;;;4143808;28;20180;-77
2021/06/24 09:52:38;;;;;;;10.23;5.70;;;20.20;99.90;;;;;;4143826;28;20474;-76
2021/06/24 09:54:43;;;;;;;5.13;3.95;;;20.30;99.90;;;;;;4143435;28;20452;-77
2021/06/24 09:56:44;;;;;;;6.38;4.57;;;20.30;99.90;;;;;;4145550;28;20045;-77
2021/06/24 09:58:49;;;;;;;11.93;5.33;;;20.40;99.90;;;;;;4143801;28;20041;-77
2021/06/24 10:00:53;;;;;;;11.98;4.80;;;20.40;99.90;;;;;;4144428;28;20048;-77
2021/06/24 10:03:08;;;;;;;8.95;5.65;;;20.50;99.90;;;;;;4142762;28;20037;-77
2021/06/24 10:05:09;;;;;;;10.30;5.90;;;20.60;99.90;;;;;;4139651;28;21610;-77
2021/06/24 10:07:17;;;;;;;10.68;6.07;;;20.70;99.90;;;;;;4145824;28;20144;-77
2021/06/24 10:09:19;;;;;;;7.85;5.38;;;20.80;99.90;;;;;;4146473;28;20041;-77
2021/06/24 10:11:21;;;;;;;9.30;5.75;;;20.80;99.90;;;;;;4145992;28;20030;-77
2021/06/24 10:13:29;;;;;;;;;;;20.90;99.90;;;;;;4143775;28;20072;-77
2021/06/24 10:15:31;;;;;;;9.52;5.57;;;20.90;99.90;;;;;;4147007;28;20610;-77
2021/06/24 10:17:32;;;;;;;7.68;5.82;;;21.00;99.90;;;;;;4145896;28;20045;-77
2021/06/24 10:19:38;;;;;;;7.60;4.55;;;21.00;99.90;;;;;;4128452;28;20030;-76
2021/06/24 10:21:39;;;;;;;8.95;5.72;;;21.00;99.90;;;;;;4142715;28;20026;-77
2021/06/24 10:23:46;;;;;;;7.57;4.93;;;21.20;99.90;;;;;;4147611;28;21340;-77
2021/06/24 10:25:51;;;;;;;14.23;6.88;;;21.30;99.90;;;;;;4142708;28;20038;-77
2021/06/24 10:27:54;;;;;;;8.88;5.75;;;21.30;99.90;;;;;;4145645;28;20034;-76
2021/06/24 10:29:55;;;;;;;9.20;5.20;;;21.30;99.90;;;;;;4144132;28;20076;-77